M I D A S
Marine Information and Data Acquisition System
Tripno 906 of the Zeeleeuw from 2005-05-27 06:47:20 to 2005-05-27 12:54:50
Back to CruiseResearch ActivitiesStationsMapUnderway DataData graphs

EquipmentUnitsComment
TimeDGPSUTC
LatitudeDGPSDM.mWGS84
LongitudeDGPSDM.mWGS84
TemperatureSBE03/SBE38deg celciusITS90
ConductivitySBE21S/mITS90
SalinitySBE21 Practical Salinity Units
ChlorophylAChelsea fluorimeterg/lCalibrated in Aceton
Missing or incorrect values are displayed as -999
Sea surface data collected by the RV Zeeleeuw from 2005-05-27 06:38:38 to 2005-05-27 13:02:10
Time Latitude Longitude Temperature Conductivity Salinity ChlorophylA
2005-05-27 06:39:42 51°13.603 2°56.079 20.8881 0.076881 0.396206 -0.848668
2005-05-27 06:40:42 51°13.627 2°55.981 20.96 0.076881 0.396223 -0.882377
2005-05-27 06:41:42 51°13.675 2°55.863 20.9343 0.076881 0.396235 -0.848668
2005-05-27 06:42:43 51°13.741 2°55.74 20.9924 0.076881 0.396253 -0.848668
2005-05-27 06:43:42 51°13.81 2°55.67 20.8185 0.076881 0.39627 -0.848668
2005-05-27 06:44:43 51°13.853 2°55.644 20.9156 0.076881 0.396276 -0.882377
2005-05-27 06:45:42 51°13.925 2°55.632 21.0509 0.076881 0.396288 -0.848668
2005-05-27 06:46:43 51°13.929 2°55.593 20.7614 0.076881 0.396323 -0.882377
2005-05-27 06:47:42 51°13.928 2°55.592 20.7608 0.076881 0.396323 -0.882377
2005-05-27 06:48:43 51°13.995 2°55.511 20.784 0.076881 0.396329 -0.882377
2005-05-27 06:49:42 51°14.124 2°55.415 20.828 0.076881 0.396341 -0.882377
2005-05-27 06:50:43 51°14.263 2°55.28 20.9059 0.076881 0.396353 -0.882377
2005-05-27 06:51:42 51°14.373 2°55.065 20.8324 0.076881 0.396353 -0.848668
2005-05-27 06:52:42 51°14.443 2°54.789 20.9283 0.076881 0.396353 -0.882377
2005-05-27 06:53:43 51°14.454 2°54.438 20.8264 0.076881 0.396376 -0.848668
2005-05-27 06:54:42 51°14.396 2°54.07 20.8058 0.076881 0.396382 -0.848668
2005-05-27 06:55:42 51°14.281 2°53.723 20.7366 0.076881 0.396394 -0.848668
2005-05-27 06:56:42 51°14.153 2°53.392 20.7436 0.076881 0.396412 -0.848668
2005-05-27 06:57:42 51°14.026 2°53.057 20.8005 0.076881 0.396423 -0.882377
2005-05-27 06:58:42 51°13.897 2°52.724 20.7773 0.076777 0.395876 -0.882377
2005-05-27 06:59:42 51°13.77 2°52.39 20.7764 0.076881 0.396447 -0.882377
2005-05-27 07:00:43 51°13.643 2°52.05 20.7847 0.076777 0.395911 -0.848668
2005-05-27 07:01:43 51°13.52 2°51.713 20.7995 0.076777 0.395929 -0.848668
2005-05-27 07:02:42 51°13.398 2°51.384 20.8535 0.076777 0.395935 -0.882377
2005-05-27 07:03:42 51°13.275 2°51.05 20.7349 0.076777 0.395958 -0.882377
2005-05-27 07:04:43 51°13.151 2°50.707 20.8418 0.076777 0.39597 -0.882377
2005-05-27 07:05:42 51°13.029 2°50.379 20.8317 0.076881 0.39653 -0.882377
2005-05-27 07:06:42 51°12.906 2°50.043 20.8255 0.076777 0.395988 -0.882377
2005-05-27 07:07:43 51°12.782 2°49.702 20.8667 0.076777 0.396011 -0.882377
2005-05-27 07:08:42 51°12.661 2°49.368 20.8472 0.076777 0.396023 -0.882377
2005-05-27 07:09:43 51°12.539 2°49.031 20.8419 0.076777 0.396035 -0.882377
2005-05-27 07:10:42 51°12.416 2°48.699 20.8542 0.076777 0.396041 -0.882377
2005-05-27 07:11:42 51°12.296 2°48.368 20.8707 0.076777 0.396052 -0.882377
2005-05-27 07:12:42 51°12.173 2°48.033 20.8777 0.076777 0.39607 -0.848668
2005-05-27 07:13:42 51°12.054 2°47.693 20.8127 0.076777 0.39607 -0.882377
2005-05-27 07:14:42 51°11.949 2°47.341 20.9384 0.076777 0.396099 -0.882377
2005-05-27 07:15:42 51°11.841 2°46.99 20.9149 0.076777 0.396105 -0.882377
2005-05-27 07:16:43 51°11.734 2°46.632 20.929 0.076777 0.396123 -0.882377
2005-05-27 07:17:42 51°11.629 2°46.288 20.9374 0.076777 0.396129 -0.882377
2005-05-27 07:18:43 51°11.54 2°45.919 20.9346 0.076777 0.396153 -0.848668
2005-05-27 07:19:42 51°11.461 2°45.558 20.8931 0.076777 0.396158 -0.814958
2005-05-27 07:20:42 51°11.382 2°45.189 20.9069 0.076777 0.396158 -0.882377
2005-05-27 07:21:42 51°11.309 2°44.815 20.9513 0.076777 0.396176 -0.848668
2005-05-27 07:22:42 51°11.24 2°44.436 20.9407 0.076777 0.396188 -0.882377
2005-05-27 07:23:42 51°11.171 2°44.064 20.9697 0.076777 0.3962 -0.848668
2005-05-27 07:24:43 51°11.104 2°43.681 20.9892 0.076777 0.396211 -0.882377
2005-05-27 07:25:43 51°11.036 2°43.305 20.9406 0.076777 0.396217 -0.882377
2005-05-27 07:26:42 51°10.969 2°42.935 20.9677 0.076777 0.396235 -0.848668
2005-05-27 07:27:42 51°10.902 2°42.562 21.0005 0.076777 0.396241 -0.814958
2005-05-27 07:28:43 51°10.833 2°42.185 20.9978 0.076777 0.396253 -0.848668
2005-05-27 07:29:42 51°10.769 2°41.819 21.0168 0.076777 0.396259 -0.882377
2005-05-27 07:30:42 51°10.702 2°41.445 21.049 0.076777 0.396276 -0.882377
2005-05-27 07:31:42 51°10.636 2°41.07 21.052 0.076777 0.396288 -0.848668
2005-05-27 07:32:42 51°10.569 2°40.693 21.0298 0.076777 0.396288 -0.882377
2005-05-27 07:33:42 51°10.504 2°40.315 21.0782 0.076777 0.3963 -0.848668
2005-05-27 07:34:43 51°10.444 2°39.927 21.0524 0.076777 0.396312 -0.848668
2005-05-27 07:35:42 51°10.388 2°39.551 21.0849 0.076777 0.396323 -0.848668
2005-05-27 07:36:43 51°10.329 2°39.163 21.0457 0.076777 0.396335 -0.882377
2005-05-27 07:37:42 51°10.273 2°38.786 21.1142 0.076777 0.396347 -0.848668
2005-05-27 07:38:42 51°10.209 2°38.407 21.1104 0.076777 0.396359 -0.882377
2005-05-27 07:39:42 51°10.141 2°38.025 21.0704 0.076777 0.396365 -0.882377
2005-05-27 07:40:43 51°10.082 2°37.639 21.1406 0.076777 0.396377 -0.882377
2005-05-27 07:41:42 51°10.028 2°37.262 21.1568 0.076777 0.396388 -0.882377
2005-05-27 07:42:42 51°9.979 2°36.876 21.0924 0.076777 0.396406 -0.882377
2005-05-27 07:43:42 51°9.945 2°36.487 21.1686 0.076673 0.395858 -0.882377
2005-05-27 07:44:42 51°9.964 2°36.104 21.1247 0.076673 0.395875 -0.882377
2005-05-27 07:45:43 51°10.111 2°35.808 21.1269 0.076673 0.395887 -0.848668
2005-05-27 07:46:42 51°10.31 2°35.675 21.0901 0.076777 0.396441 -0.848668
2005-05-27 07:47:43 51°10.515 2°35.757 21.1898 0.076673 0.395917 -0.916087
2005-05-27 07:48:42 51°10.692 2°35.925 21.121 0.076673 0.395952 -0.814958
2005-05-27 07:49:43 51°10.845 2°36.15 21.2122 0.076673 0.395987 -0.882377
2005-05-27 07:50:43 51°10.994 2°36.382 21.2213 0.076673 0.39604 -0.882377
2005-05-27 07:51:43 51°11.145 2°36.609 21.2343 0.076673 0.396094 -0.882377
2005-05-27 07:52:42 51°11.293 2°36.833 21.2686 0.076673 0.396153 -0.882377
2005-05-27 07:53:42 51°11.444 2°37.061 21.2725 0.076673 0.396218 -0.882377
2005-05-27 07:54:42 51°11.602 2°37.275 21.284 0.076673 0.396277 -0.848668
2005-05-27 07:55:42 51°11.774 2°37.467 21.3025 0.076673 0.396348 -0.882377
2005-05-27 07:56:42 51°11.942 2°37.654 21.2775 0.076673 0.396424 -0.882377
2005-05-27 07:57:42 51°12.114 2°37.834 21.2842 0.076673 0.396501 -0.848668
2005-05-27 07:58:42 51°12.3 2°37.984 21.2933 0.076569 0.396011 -0.882377
2005-05-27 07:59:42 51°12.483 2°38.131 21.3272 0.076569 0.396088 -0.882377
2005-05-27 08:00:43 51°12.671 2°38.28 21.3159 0.076569 0.396153 -0.848668
2005-05-27 08:01:43 51°12.857 2°38.428 21.3208 0.076569 0.396224 -0.882377
2005-05-27 08:02:42 51°13.041 2°38.57 21.329 0.076569 0.396301 -0.848668
2005-05-27 08:03:43 51°13.232 2°38.714 21.3474 0.076569 0.396384 -0.848668
2005-05-27 08:04:42 51°13.416 2°38.85 21.3597 0.076465 0.395905 -0.882377
2005-05-27 08:05:43 51°13.608 2°38.997 21.391 0.076465 0.395982 -0.882377
2005-05-27 08:06:43 51°13.816 2°39.031 21.347 0.076465 0.396053 -0.848668
2005-05-27 08:07:43 51°14.034 2°38.998 21.3925 0.076465 0.396124 -0.882377
2005-05-27 08:08:43 51°14.238 2°38.846 21.3643 0.076465 0.396195 -0.848668
2005-05-27 08:09:42 51°14.363 2°38.542 21.3704 0.076465 0.396272 -0.882377
2005-05-27 08:10:43 51°14.34 2°38.148 21.3242 0.076361 0.395763 -0.848668
2005-05-27 08:11:43 51°14.253 2°37.779 21.3888 0.076361 0.395864 -0.848668
2005-05-27 08:12:42 51°14.14 2°37.432 21.3562 0.076361 0.395929 -0.882377
2005-05-27 08:13:42 51°14.025 2°37.073 21.4139 0.076361 0.396 -0.848668
2005-05-27 08:14:43 51°13.912 2°36.712 21.4385 0.076361 0.396048 -0.882377
2005-05-27 08:15:43 51°13.799 2°36.353 21.4412 0.076361 0.396089 -0.882377
2005-05-27 08:16:42 51°13.683 2°36.006 21.4115 0.076361 0.396125 -0.882377
2005-05-27 08:17:43 51°13.573 2°35.641 21.4475 0.076361 0.396166 -0.848668
2005-05-27 08:18:42 51°13.466 2°35.283 21.4591 0.076361 0.396202 -0.882377
2005-05-27 08:19:42 51°13.358 2°34.929 21.4489 0.076361 0.396232 -0.882377
2005-05-27 08:20:43 51°13.247 2°34.565 21.484 0.076361 0.396261 -0.848668
2005-05-27 08:21:42 51°13.139 2°34.215 21.5114 0.076361 0.396285 -0.848668
2005-05-27 08:22:42 51°13.027 2°33.862 21.5471 0.076361 0.396303 -0.848668
2005-05-27 08:23:43 51°12.913 2°33.503 21.5465 0.076361 0.396333 -0.882377
2005-05-27 08:24:42 51°12.801 2°33.158 21.5694 0.076361 0.396362 -0.848668
2005-05-27 08:25:43 51°12.684 2°32.805 21.5735 0.076361 0.396386 -0.882377
2005-05-27 08:26:43 51°12.568 2°32.46 21.5888 0.076361 0.396416 -0.848668
2005-05-27 08:27:42 51°12.453 2°32.116 21.6224 0.076361 0.396434 -0.848668
2005-05-27 08:28:42 51°12.34 2°31.767 21.6167 0.076361 0.396458 -0.882377
2005-05-27 08:29:43 51°12.223 2°31.409 21.619 0.076361 0.396487 -0.882377
2005-05-27 08:30:43 51°12.11 2°31.052 21.5804 0.076361 0.396505 -0.882377
2005-05-27 08:31:43 51°12.035 2°30.671 21.6365 0.076361 0.396547 -0.882377
2005-05-27 08:32:42 51°11.96 2°30.294 21.6658 0.076361 0.396565 -0.882377
2005-05-27 08:33:42 51°11.893 2°29.904 21.681 0.076361 0.396582 -0.882377
2005-05-27 08:34:42 51°11.828 2°29.513 21.4393 0.076361 0.396606 -0.848668
2005-05-27 08:35:43 51°11.758 2°29.115 21.5051 0.076361 0.39663 -0.848668
2005-05-27 08:36:43 51°11.677 2°28.727 21.5311 0.076361 0.396654 -0.882377
2005-05-27 08:37:43 51°11.588 2°28.339 21.4988 0.076361 0.396684 -0.848668
2005-05-27 08:38:43 51°11.494 2°27.952 21.5099 0.076465 0.397259 -0.848668
2005-05-27 08:39:43 51°11.406 2°27.557 21.5148 0.076465 0.397289 -0.882377
2005-05-27 08:40:43 51°11.318 2°27.167 21.567 0.076465 0.397313 -0.848668
2005-05-27 08:41:42 51°11.23 2°26.789 21.5694 0.076465 0.397331 -0.882377
2005-05-27 08:42:42 51°11.141 2°26.405 21.6065 0.076465 0.397361 -0.848668
2005-05-27 08:43:42 51°11.053 2°26.019 21.5634 0.076465 0.397397 -0.882377
2005-05-27 08:44:43 51°11.041 2°25.61 21.6628 0.076465 0.397432 -0.882377
2005-05-27 08:45:42 51°11.137 2°25.261 21.5799 0.076361 0.39691 -0.848668
2005-05-27 08:46:43 51°11.336 2°25.241 12.6773 3.344383 27.365533 -0.882377
2005-05-27 08:47:42 51°11.502 2°25.415 12.5788 3.936568 33.448174 -0.882377
2005-05-27 08:48:42 51°11.668 2°25.607 12.5637 3.942051 33.630214 -0.882377
2005-05-27 08:49:43 51°11.836 2°25.803 12.5587 3.904526 33.297538 -0.882377
2005-05-27 08:50:43 51°11.999 2°25.998 12.5446 3.922972 33.481967 -0.848668
2005-05-27 08:51:43 51°12.161 2°26.193 12.5481 3.892299 33.228053 -0.848668
2005-05-27 08:52:43 51°12.319 2°26.396 12.5448 3.907162 33.381268 -0.882377
2005-05-27 08:53:42 51°12.474 2°26.595 12.5448 3.925397 33.558498 -0.882377
2005-05-27 08:54:42 51°12.632 2°26.798 12.5469 3.909586 33.414053 -0.882377
2005-05-27 08:55:43 51°12.791 2°27.004 12.546 3.886818 33.186902 -0.882377
2005-05-27 08:56:43 51°12.948 2°27.207 12.5444 3.893037 33.239892 -0.882377
2005-05-27 08:57:43 51°13.103 2°27.409 12.5349 3.891034 33.227028 -0.848668
2005-05-27 08:58:42 51°13.255 2°27.61 12.5673 3.909797 33.413292 -0.848668
2005-05-27 08:59:42 51°13.411 2°27.816 12.5967 3.899467 33.327326 -0.882377
2005-05-27 09:00:43 51°13.567 2°28.021 12.5088 3.882602 33.150217 -0.848668
2005-05-27 09:01:42 51°13.719 2°28.223 12.4774 3.870376 33.090123 -0.882377
2005-05-27 09:02:43 51°13.877 2°28.431 12.4518 3.889138 33.296592 -0.882377
2005-05-27 09:03:42 51°14.029 2°28.634 12.4597 3.775731 32.224312 -0.882377
2005-05-27 09:04:42 51°14.185 2°28.841 12.4634 3.875752 33.173022 -0.848668
2005-05-27 09:05:42 51°14.342 2°29.049 12.4655 3.850034 32.92921 -0.882377
2005-05-27 09:06:42 51°14.499 2°29.261 12.4873 3.791645 32.368141 -0.882377
2005-05-27 09:07:43 51°14.657 2°29.471 12.4898 3.824422 32.669684 -0.916087
2005-05-27 09:08:42 51°14.811 2°29.674 12.4934 3.812091 32.548342 -0.848668
2005-05-27 09:09:43 51°14.969 2°29.882 12.5007 3.869638 33.09065 -0.848668
2005-05-27 09:10:43 51°15.125 2°30.087 12.5096 3.852774 32.926589 -0.848668
2005-05-27 09:11:43 51°15.28 2°30.292 12.5059 3.685522 31.333883 -0.882377
2005-05-27 09:12:42 51°15.434 2°30.495 12.4948 3.865317 33.045357 -0.916087
2005-05-27 09:13:43 51°15.589 2°30.7 12.5015 3.837491 32.782483 -0.882377
2005-05-27 09:14:43 51°15.743 2°30.902 12.5083 3.819995 32.609292 -0.882377
2005-05-27 09:15:42 51°15.898 2°31.1 12.5191 3.848769 32.880949 -0.882377
2005-05-27 09:16:43 51°16.055 2°31.3 12.5496 3.8728 33.0933 -0.882377
2005-05-27 09:17:43 51°16.211 2°31.5 12.5587 3.884711 33.19435 -0.848668
2005-05-27 09:18:42 51°16.361 2°31.7 12.5985 3.869743 33.042263 -0.882377
2005-05-27 09:19:43 51°16.521 2°31.908 12.6168 3.864789 32.952791 -0.916087
2005-05-27 09:20:42 51°16.673 2°32.109 12.6093 3.882707 33.116916 -0.882377
2005-05-27 09:21:43 51°16.83 2°32.313 12.6415 3.746853 31.835804 -0.882377
2005-05-27 09:22:42 51°16.986 2°32.513 12.7297 3.853721 32.799486 -0.916087
2005-05-27 09:23:43 51°17.141 2°32.715 12.7472 3.872798 32.913132 -0.882377
2005-05-27 09:24:42 51°17.295 2°32.914 12.7876 3.83791 32.574276 -0.882377
2005-05-27 09:25:42 51°17.451 2°33.11 12.7966 3.881651 32.960302 -0.882377
2005-05-27 09:26:43 51°17.601 2°33.322 12.7737 3.795435 32.147955 -0.882377
2005-05-27 09:27:42 51°17.747 2°33.525 12.7512 3.865208 32.825041 -0.882377
2005-05-27 09:28:43 51°17.895 2°33.727 12.797 3.786688 32.081337 -0.882377
2005-05-27 09:29:42 51°18.038 2°33.924 12.8574 3.424864 28.658876 -0.882377
2005-05-27 09:30:42 51°18.187 2°34.124 12.9261 3.811349 32.220483 -0.848668
2005-05-27 09:31:42 51°18.326 2°34.333 12.8713 3.785632 31.93336 -0.882377
2005-05-27 09:32:43 51°18.44 2°34.577 12.9377 3.796383 32.068479 -0.882377
2005-05-27 09:33:43 51°18.55 2°34.818 12.9825 3.792693 31.980006 -0.882377
2005-05-27 09:34:42 51°18.66 2°35.055 13.0129 3.792587 31.941742 -0.848668
2005-05-27 09:35:42 51°18.772 2°35.297 13.0255 3.826102 32.222537 -0.882377
2005-05-27 09:36:42 51°18.864 2°35.553 13.0348 3.756122 31.567911 -0.882377
2005-05-27 09:37:42 51°18.895 2°35.84 13.0063 3.807447 32.049634 -0.882377
2005-05-27 09:38:43 51°18.898 2°36.141 13.0327 3.795538 31.95438 -0.882377
2005-05-27 09:39:42 51°18.904 2°36.438 13.0279 3.744424 31.455993 -0.882377
2005-05-27 09:40:42 51°18.912 2°36.733 13.0124 3.772141 31.740429 -0.882377
2005-05-27 09:41:43 51°18.92 2°37.037 13.0428 3.790901 31.920714 -0.882377
2005-05-27 09:42:42 51°19.027 2°37.244 13.1445 3.706697 31.111346 -0.882377
2005-05-27 09:43:42 51°19.214 2°37.321 13.1451 3.737151 31.308808 -0.848668
2005-05-27 09:44:42 51°19.418 2°37.308 13.0605 3.786894 31.761801 -0.916087
2005-05-27 09:45:42 51°19.62 2°37.322 12.9482 3.77309 31.759046 -0.882377
2005-05-27 09:46:42 51°19.823 2°37.344 12.9573 3.69047 31.014417 -0.916087
2005-05-27 09:47:42 51°20.025 2°37.369 12.9379 3.749695 31.581986 -0.916087
2005-05-27 09:48:43 51°20.229 2°37.398 13.0815 3.584994 30.025693 -0.882377
2005-05-27 09:49:43 51°20.431 2°37.429 13.2011 3.803546 31.941343 -0.882377
2005-05-27 09:50:43 51°20.631 2°37.463 13.0563 3.800173 31.866978 -0.882377
2005-05-27 09:51:43 51°20.83 2°37.498 12.9552 3.745478 31.488987 -0.916087
2005-05-27 09:52:43 51°21.029 2°37.534 12.9655 3.083556 25.434931 -0.916087
2005-05-27 09:53:43 51°21.231 2°37.566 12.9901 3.779414 31.842373 -0.882377
2005-05-27 09:54:42 51°21.43 2°37.601 13.011 3.750853 31.553443 -0.882377
2005-05-27 09:55:43 51°21.633 2°37.637 12.9869 3.804391 32.047835 -0.882377
2005-05-27 09:56:42 51°21.833 2°37.669 12.895 3.777728 31.8559 -0.916087
2005-05-27 09:57:42 51°22.034 2°37.71 12.9894 3.799017 32.089305 -0.882377
2005-05-27 09:58:43 51°22.235 2°37.762 12.9267 3.672872 30.852596 -0.882377
2005-05-27 09:59:43 51°22.432 2°37.81 12.83 3.789005 31.959131 -0.882377
2005-05-27 10:00:43 51°22.629 2°37.862 12.6486 3.72451 31.496409 -0.882377
2005-05-27 10:01:43 51°22.823 2°37.916 12.5808 3.755389 31.895404 -0.916087
2005-05-27 10:02:43 51°23.018 2°37.97 12.5393 3.680885 31.234363 -0.916087
2005-05-27 10:03:43 51°23.194 2°38.088 12.514 3.09872 25.827522 -0.882377
2005-05-27 10:04:43 51°23.356 2°38.249 12.5275 3.761292 32.037293 -0.916087
2005-05-27 10:05:43 51°23.499 2°38.451 12.5186 3.763505 32.054283 -0.848668
2005-05-27 10:06:43 51°23.637 2°38.663 12.5234 3.887241 33.241191 -0.882377
2005-05-27 10:07:42 51°23.77 2°38.871 12.5225 3.885554 33.214778 -0.882377
2005-05-27 10:08:43 51°23.907 2°39.089 12.5008 3.882392 33.19705 -0.882377
2005-05-27 10:09:42 51°24.041 2°39.297 12.4943 3.878282 33.178537 -0.882377
2005-05-27 10:10:43 51°24.178 2°39.516 12.5027 3.874698 33.140242 -0.848668
2005-05-27 10:11:42 51°24.313 2°39.727 12.4991 3.871536 33.10873 -0.882377
2005-05-27 10:12:43 51°24.436 2°39.96 12.4946 3.868163 33.080023 -0.882377
2005-05-27 10:13:43 51°24.557 2°40.197 12.4936 3.864474 33.047616 -0.916087
2005-05-27 10:14:43 51°24.677 2°40.431 12.4899 3.858466 32.991746 -0.882377
2005-05-27 10:15:43 51°24.798 2°40.669 12.4766 3.852353 32.93967 -0.882377
2005-05-27 10:16:41 51°24.916 2°40.899 12.4859 3.849718 32.920724 -0.882377
2005-05-27 10:17:42 51°25.038 2°41.136 12.4996 3.848453 32.908675 -0.882377
2005-05-27 10:18:43 51°25.161 2°41.371 12.5006 3.842761 32.840134 -0.882377
2005-05-27 10:19:43 51°25.283 2°41.598 12.5018 3.840232 32.817417 -0.916087
2005-05-27 10:20:43 51°25.405 2°41.825 12.5451 3.840548 32.804079 -0.882377
2005-05-27 10:21:42 51°25.525 2°42.05 12.5471 3.836648 32.733015 -0.916087
2005-05-27 10:22:43 51°25.648 2°42.277 12.5648 3.834751 32.72177 -0.916087
2005-05-27 10:23:43 51°25.771 2°42.503 12.5865 3.836226 32.71748 -0.882377
2005-05-27 10:24:43 51°25.89 2°42.734 12.6049 3.832537 32.680409 -0.916087
2005-05-27 10:25:43 51°25.999 2°42.979 12.6717 3.83612 32.663697 -0.848668
2005-05-27 10:26:42 51°26.099 2°43.224 12.6821 3.837911 32.628063 -0.882377
2005-05-27 10:27:42 51°26.188 2°43.481 12.6888 3.834538 32.606225 -0.882377
2005-05-27 10:28:43 51°26.283 2°43.744 12.8054 3.83127 32.545044 -0.882377
2005-05-27 10:29:43 51°26.376 2°44.006 12.8633 3.832639 32.471619 -0.882377
2005-05-27 10:30:43 51°26.469 2°44.266 12.8766 3.830952 32.41971 -0.916087
2005-05-27 10:31:43 51°26.563 2°44.528 12.9347 3.822521 32.336942 -0.882377
2005-05-27 10:32:43 51°26.658 2°44.791 12.937 3.820939 32.269048 -0.882377
2005-05-27 10:33:43 51°26.752 2°45.054 13.0361 3.819885 32.249223 -0.882377
2005-05-27 10:34:43 51°26.842 2°45.315 12.9343 3.830002 32.281529 -0.882377
2005-05-27 10:35:43 51°26.919 2°45.588 13.0475 3.824839 32.320958 -0.916087
2005-05-27 10:36:43 51°26.995 2°45.859 12.919 3.84033 32.327611 -0.916087
2005-05-27 10:37:42 51°27.071 2°46.127 12.9348 3.81978 32.317103 -0.916087
2005-05-27 10:38:43 51°27.148 2°46.397 12.99 3.821571 32.242616 -0.916087
2005-05-27 10:39:43 51°27.22 2°46.668 12.7739 3.818936 32.231062 -0.882377
2005-05-27 10:40:43 51°27.294 2°46.94 12.7325 3.805975 32.297877 -0.882377
2005-05-27 10:41:43 51°27.367 2°47.212 12.7323 3.80313 32.277648 -0.882377
2005-05-27 10:42:42 51°27.438 2°47.479 12.7404 3.800179 32.231155 -0.916087
2005-05-27 10:43:43 51°27.513 2°47.757 12.8187 3.80334 32.210564 -0.882377
2005-05-27 10:44:42 51°27.585 2°48.023 12.8083 3.806185 32.200963 -0.882377
2005-05-27 10:45:42 51°27.658 2°48.299 12.8148 3.806712 32.239048 -0.882377
2005-05-27 10:46:43 51°27.732 2°48.576 12.938 3.806607 32.219498 -0.882377
2005-05-27 10:47:42 51°27.806 2°48.845 12.8629 3.810399 32.162052 -0.916087
2005-05-27 10:48:43 51°27.88 2°49.123 12.9151 3.800494 32.151329 -0.882377
2005-05-27 10:49:42 51°27.951 2°49.397 12.8702 3.805446 32.120773 -0.882377
2005-05-27 10:50:42 51°28.023 2°49.674 12.8704 3.803444 32.168546 -0.882377
2005-05-27 10:51:42 51°28.096 2°49.95 12.9771 3.805341 32.132294 -0.848668
2005-05-27 10:52:42 51°28.167 2°50.222 12.8 3.806605 32.083678 -0.882377
2005-05-27 10:53:42 51°28.239 2°50.499 12.7809 3.791325 32.080815 -0.916087
2005-05-27 10:54:43 51°28.311 2°50.78 12.82 3.787636 32.055301 -0.882377
2005-05-27 10:55:42 51°28.347 2°51.059 13.2027 3.790376 32.034345 -0.882377
2005-05-27 10:56:42 51°28.236 2°51.322 13.2543 3.818933 31.984252 -0.916087
2005-05-27 10:57:43 51°28.067 2°51.55 13.325 3.808393 31.87824 -0.916087
2005-05-27 10:58:43 51°27.856 2°51.662 13.2669 3.802068 31.758116 -0.916087
2005-05-27 10:59:43 51°27.633 2°51.512 13.159 3.788474 31.705587 -0.882377
2005-05-27 11:00:43 51°27.48 2°51.178 13.0722 3.783416 31.740968 -0.882377
2005-05-27 11:01:43 51°27.346 2°50.823 13.0224 3.78542 31.808893 -0.848668
2005-05-27 11:02:43 51°27.215 2°50.464 12.9245 3.789637 31.942167 -0.916087
2005-05-27 11:03:43 51°27.084 2°50.1 12.895 3.787002 31.9351 -0.882377
2005-05-27 11:04:43 51°26.954 2°49.741 12.9777 3.78753 31.983939 -0.882377
2005-05-27 11:05:43 51°26.826 2°49.377 12.8729 3.788583 31.921827 -0.882377
2005-05-27 11:06:43 51°26.697 2°49.009 12.7911 3.784474 31.990654 -0.882377
2005-05-27 11:07:43 51°26.572 2°48.647 12.7696 3.785529 32.052586 -0.882377
2005-05-27 11:08:43 51°26.448 2°48.281 12.7631 3.786688 32.070111 -0.882377
2005-05-27 11:09:42 51°26.327 2°47.921 12.8332 3.78711 32.080028 -0.882377
2005-05-27 11:10:43 51°26.198 2°47.549 12.8949 3.79164 32.054798 -0.848668
2005-05-27 11:11:42 51°26.079 2°47.196 12.8147 3.803233 32.140815 -0.882377
2005-05-27 11:12:43 51°25.956 2°46.831 12.7178 3.797965 32.181078 -0.882377
2005-05-27 11:13:43 51°25.833 2°46.474 12.7567 3.798176 32.227525 -0.882377
2005-05-27 11:14:43 51°25.71 2°46.119 12.7722 3.799335 32.201295 -0.882377
2005-05-27 11:15:43 51°25.542 2°45.839 12.804 3.804921 32.257326 -0.848668
2005-05-27 11:16:43 51°25.305 2°45.74 12.84 3.801969 32.188376 -0.882377
2005-05-27 11:17:43 51°25.065 2°45.635 13.1526 3.803339 32.186728 -0.882377
2005-05-27 11:18:42 51°24.837 2°45.529 13.4271 3.791319 31.719213 -0.882377
2005-05-27 11:19:43 51°24.599 2°45.47 13.638 3.782358 31.438811 -0.848668
2005-05-27 11:20:43 51°24.365 2°45.44 13.3535 3.781936 31.420356 -0.882377
2005-05-27 11:21:43 51°24.152 2°45.52 13.4226 3.767184 31.406068 -0.882377
2005-05-27 11:22:42 51°24.033 2°45.759 13.4936 3.768869 31.346921 -0.848668
2005-05-27 11:23:43 51°24 2°46.067 13.322 3.770766 31.347406 -0.916087
2005-05-27 11:24:43 51°24.011 2°46.375 13.259 3.77003 31.457272 -0.882377
2005-05-27 11:25:42 51°24.018 2°46.674 13.1682 3.772139 31.560544 -0.916087
2005-05-27 11:26:43 51°24.018 2°46.992 13.2109 3.766764 31.540614 -0.882377
2005-05-27 11:27:43 51°24.017 2°47.302 13.2224 3.766553 31.515591 -0.916087
2005-05-27 11:28:43 51°24.022 2°47.616 13.2914 3.766869 31.524937 -0.916087
2005-05-27 11:29:43 51°24.032 2°47.924 13.3969 3.771822 31.494943 -0.882377
2005-05-27 11:30:42 51°24.042 2°48.229 13.6223 3.771503 31.356125 -0.882377
2005-05-27 11:31:43 51°24.051 2°48.546 13.7423 3.781724 31.285555 -0.882377
2005-05-27 11:32:43 51°24.058 2°48.854 13.7092 3.770868 31.146985 -0.882377
2005-05-27 11:33:43 51°24.066 2°49.167 13.6894 3.77129 31.148989 -0.882377
2005-05-27 11:34:43 51°24.071 2°49.476 13.5618 3.759804 31.128785 -0.882377
2005-05-27 11:35:43 51°24.073 2°49.793 13.3765 3.752849 31.152893 -0.882377
2005-05-27 11:36:42 51°24.075 2°50.1 13.277 3.74421 31.210126 -0.916087
2005-05-27 11:37:42 51°24.078 2°50.414 13.3003 3.745791 31.261472 -0.882377
2005-05-27 11:38:42 51°24.078 2°50.729 13.2305 3.731354 31.15337 -0.882377
2005-05-27 11:39:42 51°23.993 2°51.002 13.2013 3.741049 31.238341 -0.882377
2005-05-27 11:40:42 51°23.777 2°51.105 13.1598 3.72872 31.201053 -0.882377
2005-05-27 11:41:43 51°23.547 2°50.965 13.2033 3.729036 31.197017 -0.916087
2005-05-27 11:42:43 51°23.359 2°50.707 13.1233 3.738626 31.28435 -0.916087
2005-05-27 11:43:42 51°23.186 2°50.431 13.1131 3.736625 31.323028 -0.848668
2005-05-27 11:44:43 51°23.007 2°50.146 13.1447 3.73399 31.288268 -0.882377
2005-05-27 11:45:43 51°22.832 2°49.86 13.1243 3.730091 31.239212 -0.882377
2005-05-27 11:46:42 51°22.656 2°49.598 13.098 3.738311 31.343219 -0.882377
2005-05-27 11:47:43 51°22.465 2°49.336 13.1053 3.733253 31.297964 -0.916087
2005-05-27 11:48:42 51°22.264 2°49.133 13.1484 3.737257 31.335945 -0.882377
2005-05-27 11:49:43 51°22.05 2°48.958 13.239 3.747584 31.373475 -0.882377
2005-05-27 11:50:43 51°21.835 2°48.777 13.5281 3.728192 31.066069 -0.882377
2005-05-27 11:51:43 51°21.617 2°48.598 13.6194 3.731245 30.918665 -0.916087
2005-05-27 11:52:43 51°21.398 2°48.418 13.5384 3.728083 30.847375 -0.882377
2005-05-27 11:53:43 51°21.18 2°48.243 14.3665 3.73177 30.802198 -0.916087
2005-05-27 11:54:43 51°20.964 2°48.069 14.6998 3.757897 30.474665 -0.882377
2005-05-27 11:55:43 51°20.751 2°47.892 14.824 3.765164 30.272448 -0.848668
2005-05-27 11:56:43 51°20.537 2°47.712 14.6406 3.760316 30.224427 -0.882377
2005-05-27 11:57:43 51°20.325 2°47.532 14.6737 3.739558 30.165294 -0.848668
2005-05-27 11:58:43 51°20.114 2°47.352 14.4874 3.719956 29.969763 -0.882377
2005-05-27 11:59:42 51°19.906 2°47.175 14.5031 3.709841 29.984249 -0.882377
2005-05-27 12:00:43 51°19.691 2°46.989 14.3809 3.706996 29.987992 -0.882377
2005-05-27 12:01:42 51°19.484 2°46.803 14.1791 3.711424 30.113802 -0.916087
2005-05-27 12:02:43 51°19.273 2°46.6 14.0316 3.711321 30.277527 -0.882377
2005-05-27 12:03:42 51°19.069 2°46.404 14.0594 3.701416 30.266052 -0.882377
2005-05-27 12:04:42 51°18.862 2°46.207 14.1511 3.717855 30.382392 -0.916087
2005-05-27 12:05:43 51°18.648 2°46.009 14.235 3.717643 30.306733 -0.882377
2005-05-27 12:06:43 51°18.446 2°45.806 14.2213 3.735453 30.468771 -0.916087
2005-05-27 12:07:43 51°18.24 2°45.6 14.2709 3.727654 30.341797 -0.882377
2005-05-27 12:08:43 51°18.036 2°45.397 14.2558 3.751154 30.532294 -0.882377
2005-05-27 12:09:42 51°17.836 2°45.201 14.1389 3.761799 30.675731 -0.882377
2005-05-27 12:10:43 51°17.628 2°44.996 14.2599 3.770547 30.801218 -0.882377
2005-05-27 12:11:43 51°17.42 2°44.799 13.9146 3.798684 30.926372 -0.848668
2005-05-27 12:12:43 51°17.212 2°44.606 13.6316 3.797952 31.311451 -0.848668
2005-05-27 12:13:43 51°17.004 2°44.411 13.5623 3.792369 31.426368 -0.916087
2005-05-27 12:14:42 51°16.8 2°44.222 13.496 3.795637 31.509616 -0.882377
2005-05-27 12:15:43 51°16.585 2°44.029 13.4462 3.800274 31.587393 -0.848668
2005-05-27 12:16:42 51°16.364 2°43.909 13.4487 3.804807 31.65545 -0.916087
2005-05-27 12:17:42 51°16.128 2°43.887 13.4792 3.808812 31.704039 -0.882377
2005-05-27 12:18:43 51°15.933 2°44.061 13.5328 3.817137 31.737685 -0.882377
2005-05-27 12:19:43 51°15.809 2°44.357 13.7129 3.822195 31.719394 -0.916087
2005-05-27 12:20:43 51°15.697 2°44.658 13.8486 3.832522 31.67873 -0.882377
2005-05-27 12:21:43 51°15.581 2°44.957 13.9539 3.839266 31.646601 -0.848668
2005-05-27 12:22:42 51°15.463 2°45.252 13.9499 3.844429 31.614056 -0.882377
2005-05-27 12:23:42 51°15.343 2°45.546 13.9834 3.838422 31.590429 -0.882377
2005-05-27 12:24:43 51°15.219 2°45.846 13.9429 3.845377 31.582609 -0.882377
2005-05-27 12:25:43 51°15.097 2°46.14 14.0389 3.840319 31.60467 -0.882377
2005-05-27 12:26:43 51°14.974 2°46.426 13.8351 3.845484 31.652619 -0.882377
2005-05-27 12:27:43 51°14.85 2°46.711 13.8503 3.83505 31.608547 -0.882377
2005-05-27 12:28:43 51°14.728 2°47.004 13.9679 3.837475 31.649699 -0.882377
2005-05-27 12:29:43 51°14.606 2°47.295 14.0292 3.852966 31.666448 -0.882377
2005-05-27 12:30:43 51°14.486 2°47.579 14.5771 3.873938 31.671301 -0.882377
2005-05-27 12:31:43 51°14.403 2°47.889 14.6344 3.87172 31.35912 -0.882377
2005-05-27 12:32:43 51°14.363 2°48.221 14.5379 3.849059 31.125148 -0.916087
2005-05-27 12:33:43 51°14.364 2°48.556 14.3932 3.831038 31.099252 -0.916087
2005-05-27 12:34:43 51°14.408 2°48.886 14.3616 3.817232 31.024337 -0.916087
2005-05-27 12:35:43 51°14.447 2°49.215 14.2675 3.807536 30.970056 -0.916087
2005-05-27 12:36:43 51°14.481 2°49.549 14.2232 3.797841 30.969866 -0.882377
2005-05-27 12:37:43 51°14.494 2°49.891 14.5449 3.786143 30.848577 -0.882377
2005-05-27 12:38:43 51°14.512 2°50.23 14.675 3.788035 30.587319 -0.916087
2005-05-27 12:39:43 51°14.54 2°50.568 14.7109 3.794148 30.62255 -0.882377
2005-05-27 12:40:43 51°14.568 2°50.905 14.7733 3.795518 30.636638 -0.916087
2005-05-27 12:41:43 51°14.599 2°51.246 14.8409 3.796045 30.641369 -0.882377
2005-05-27 12:42:43 51°14.629 2°51.586 14.938 3.796888 30.633443 -0.882377
2005-05-27 12:43:43 51°14.658 2°51.922 15.0799 3.797836 30.626473 -0.882377
2005-05-27 12:44:43 51°14.685 2°52.266 15.1581 3.799206 30.631619 -0.882377
2005-05-27 12:45:43 51°14.712 2°52.608 15.2741 3.801208 30.632915 -0.882377
2005-05-27 12:46:43 51°14.704 2°52.954 15.4013 3.803316 30.639913 -0.882377
2005-05-27 12:47:43 51°14.689 2°53.302 15.5304 3.80595 30.642118 -0.848668
2005-05-27 12:48:42 51°14.662 2°53.647 15.672 3.808901 30.647749 -0.882377
2005-05-27 12:49:43 51°14.626 2°54.006 15.7874 3.811852 30.655158 -0.848668
2005-05-27 12:50:43 51°14.574 2°54.311 15.9307 3.814908 30.662912 -0.848668
2005-05-27 12:51:43 51°14.522 2°54.591 15.9946 3.817753 30.666406 -0.882377
2005-05-27 12:52:43 51°14.45 2°54.876 16.0904 3.820704 30.670248 -0.882377
2005-05-27 12:53:43 51°14.35 2°55.105 16.1956 3.824076 30.677853 -0.848668
2005-05-27 12:54:43 51°14.252 2°55.289 16.283 3.827343 30.686289 -0.882377
2005-05-27 12:55:43 51°14.149 2°55.403 16.3647 3.83061 30.691762 -0.882377
2005-05-27 12:56:43 51°14.037 2°55.482 16.4179 3.833877 30.699007 -0.916087
2005-05-27 12:57:43 51°13.918 2°55.566 16.5469 3.837144 30.704475 -0.882377
2005-05-27 12:58:42 51°13.801 2°55.657 16.601 3.840411 30.709351 -0.882377
2005-05-27 12:59:43 51°13.709 2°55.78 16.7249 3.843783 30.714573 -0.916087
2005-05-27 13:00:44 51°13.663 2°55.892 16.783 3.84705 30.716501 -0.882377
2005-05-27 13:01:43 51°13.633 2°55.991 16.8619 3.850528 30.722071 -0.882377